sensor_id;sensor_type;location;lat;lon;timestamp;pressure;altitude;pressure_sealevel;temperature;humidity
64521;BME280;50896;46.714;17.322;2023-12-29T00:01:49;100872.31;;;4.22;100.00
64521;BME280;50896;46.714;17.322;2023-12-29T00:04:16;100875.28;;;4.17;100.00
64521;BME280;50896;46.714;17.322;2023-12-29T00:06:43;100871.56;;;4.20;100.00
64521;BME280;50896;46.714;17.322;2023-12-29T00:09:14;100868.09;;;4.19;100.00
64521;BME280;50896;46.714;17.322;2023-12-29T00:11:41;100875.06;;;4.20;100.00
64521;BME280;50896;46.714;17.322;2023-12-29T00:14:08;100874.31;;;4.18;100.00
64521;BME280;50896;46.714;17.322;2023-12-29T00:16:35;100889.38;;;4.16;100.00
64521;BME280;50896;46.714;17.322;2023-12-29T00:19:01;100883.25;;;4.16;100.00
64521;BME280;50896;46.714;17.322;2023-12-29T00:21:28;100885.41;;;4.10;100.00
64521;BME280;50896;46.714;17.322;2023-12-29T00:23:55;100865.28;;;4.09;100.00
64521;BME280;50896;46.714;17.322;2023-12-29T00:26:23;100868.56;;;4.13;100.00
64521;BME280;50896;46.714;17.322;2023-12-29T00:28:56;100863.91;;;4.17;100.00
64521;BME280;50896;46.714;17.322;2023-12-29T00:31:23;100856.94;;;4.16;100.00
64521;BME280;50896;46.714;17.322;2023-12-29T00:33:51;100862.19;;;4.16;100.00
64521;BME280;50896;46.714;17.322;2023-12-29T00:36:19;100868.56;;;4.13;100.00
64521;BME280;50896;46.714;17.322;2023-12-29T00:38:46;100852.66;;;4.15;100.00
64521;BME280;50896;46.714;17.322;2023-12-29T00:41:13;100861.72;;;4.10;100.00
64521;BME280;50896;46.714;17.322;2023-12-29T00:43:40;100869.91;;;4.06;100.00
64521;BME280;50896;46.714;17.322;2023-12-29T00:46:08;100871.72;;;4.05;100.00
64521;BME280;50896;46.714;17.322;2023-12-29T00:48:35;100874.56;;;4.02;100.00
64521;BME280;50896;46.714;17.322;2023-12-29T00:51:03;100868.78;;;3.97;100.00
64521;BME280;50896;46.714;17.322;2023-12-29T00:53:30;100866.97;;;3.98;100.00
64521;BME280;50896;46.714;17.322;2023-12-29T00:56:01;100870.47;;;3.98;100.00
64521;BME280;50896;46.714;17.322;2023-12-29T00:58:28;100863.63;;;3.96;100.00
64521;BME280;50896;46.714;17.322;2023-12-29T01:00:55;100859.09;;;3.98;100.00
64521;BME280;50896;46.714;17.322;2023-12-29T01:03:22;100866.97;;;3.98;100.00
64521;BME280;50896;46.714;17.322;2023-12-29T01:05:52;100862.16;;;3.91;100.00
64521;BME280;50896;46.714;17.322;2023-12-29T01:08:19;100856.19;;;3.89;100.00
64521;BME280;50896;46.714;17.322;2023-12-29T01:10:45;100862.06;;;3.93;100.00
64521;BME280;50896;46.714;17.322;2023-12-29T01:13:12;100866.72;;;3.89;100.00
64521;BME280;50896;46.714;17.322;2023-12-29T01:15:39;100862.91;;;3.93;100.00
64521;BME280;50896;46.714;17.322;2023-12-29T01:18:11;100862.28;;;3.90;100.00
64521;BME280;50896;46.714;17.322;2023-12-29T01:20:39;100861.53;;;3.88;100.00
64521;BME280;50896;46.714;17.322;2023-12-29T01:23:07;100864.34;;;3.98;100.00
64521;BME280;50896;46.714;17.322;2023-12-29T01:25:34;100856.47;;;3.98;100.00
64521;BME280;50896;46.714;17.322;2023-12-29T01:28:01;100852.88;;;3.99;100.00
64521;BME280;50896;46.714;17.322;2023-12-29T01:30:28;100841.75;;;3.95;100.00
64521;BME280;50896;46.714;17.322;2023-12-29T01:32:55;100844.09;;;3.87;100.00
64521;BME280;50896;46.714;17.322;2023-12-29T01:35:22;100851.41;;;3.94;100.00
64521;BME280;50896;46.714;17.322;2023-12-29T01:37:49;100846.53;;;3.77;100.00
64521;BME280;50896;46.714;17.322;2023-12-29T01:40:16;100856.19;;;3.76;100.00
64521;BME280;50896;46.714;17.322;2023-12-29T01:42:44;100847.69;;;3.73;100.00
64521;BME280;50896;46.714;17.322;2023-12-29T01:45:20;100849.13;;;3.64;100.00
64521;BME280;50896;46.714;17.322;2023-12-29T01:47:49;100842.34;;;3.62;100.00
64521;BME280;50896;46.714;17.322;2023-12-29T01:50:19;100847.72;;;3.60;100.00
64521;BME280;50896;46.714;17.322;2023-12-29T01:52:49;100846.53;;;3.51;100.00
64521;BME280;50896;46.714;17.322;2023-12-29T01:55:20;100840.44;;;3.51;100.00
64521;BME280;50896;46.714;17.322;2023-12-29T01:57:50;100839.41;;;3.53;100.00
64521;BME280;50896;46.714;17.322;2023-12-29T02:00:18;100843.19;;;3.49;100.00
64521;BME280;50896;46.714;17.322;2023-12-29T02:02:46;100832.66;;;3.49;100.00
64521;BME280;50896;46.714;17.322;2023-12-29T02:05:14;100822.25;;;3.48;100.00
64521;BME280;50896;46.714;17.322;2023-12-29T02:07:44;100833.72;;;3.47;100.00
64521;BME280;50896;46.714;17.322;2023-12-29T02:10:12;100834.75;;;3.44;100.00
64521;BME280;50896;46.714;17.322;2023-12-29T02:12:42;100831.31;;;3.44;100.00
64521;BME280;50896;46.714;17.322;2023-12-29T02:15:09;100836.78;;;3.40;100.00
64521;BME280;50896;46.714;17.322;2023-12-29T02:17:56;100837.38;;;3.44;100.00
64521;BME280;50896;46.714;17.322;2023-12-29T02:20:27;100826.25;;;3.40;100.00
64521;BME280;50896;46.714;17.322;2023-12-29T02:22:54;100821.22;;;3.50;100.00
64521;BME280;50896;46.714;17.322;2023-12-29T02:25:21;100812.69;;;3.47;100.00
64521;BME280;50896;46.714;17.322;2023-12-29T02:30:38;100817.00;;;3.48;100.00
64521;BME280;50896;46.714;17.322;2023-12-29T02:33:10;100808.47;;;3.44;100.00
64521;BME280;50896;46.714;17.322;2023-12-29T02:35:42;100814.97;;;3.51;100.00
64521;BME280;50896;46.714;17.322;2023-12-29T02:38:12;100812.69;;;3.47;100.00
64521;BME280;50896;46.714;17.322;2023-12-29T02:40:40;100815.19;;;3.48;100.00
64521;BME280;50896;46.714;17.322;2023-12-29T02:43:11;100814.16;;;3.51;100.00
64521;BME280;50896;46.714;17.322;2023-12-29T02:45:38;100808.78;;;3.52;100.00
64521;BME280;50896;46.714;17.322;2023-12-29T02:48:05;100800.06;;;3.52;100.00
64521;BME280;50896;46.714;17.322;2023-12-29T02:50:33;100803.84;;;3.61;100.00
64521;BME280;50896;46.714;17.322;2023-12-29T02:53:00;100805.41;;;3.63;100.00
64521;BME280;50896;46.714;17.322;2023-12-29T02:55:27;100796.88;;;3.59;100.00
64521;BME280;50896;46.714;17.322;2023-12-29T02:57:53;100801.63;;;3.54;100.00
64521;BME280;50896;46.714;17.322;2023-12-29T03:00:21;100802.59;;;3.53;100.00
64521;BME280;50896;46.714;17.322;2023-12-29T03:02:48;100805.63;;;3.47;100.00
64521;BME280;50896;46.714;17.322;2023-12-29T03:05:15;100803.84;;;3.48;100.00
64521;BME280;50896;46.714;17.322;2023-12-29T03:07:42;100810.16;;;3.58;100.00
64521;BME280;50896;46.714;17.322;2023-12-29T03:10:09;100822.38;;;3.46;100.00
64521;BME280;50896;46.714;17.322;2023-12-29T03:12:36;100815.84;;;3.52;100.00
64521;BME280;50896;46.714;17.322;2023-12-29T03:15:03;100811.22;;;3.42;100.00
64521;BME280;50896;46.714;17.322;2023-12-29T03:17:30;100812.91;;;3.44;100.00
64521;BME280;50896;46.714;17.322;2023-12-29T03:19:58;100809.53;;;3.41;100.00
64521;BME280;50896;46.714;17.322;2023-12-29T03:22:26;100807.00;;;3.40;100.00
64521;BME280;50896;46.714;17.322;2023-12-29T03:24:52;100796.06;;;3.33;100.00
64521;BME280;50896;46.714;17.322;2023-12-29T03:27:19;100785.56;;;3.33;100.00
64521;BME280;50896;46.714;17.322;2023-12-29T03:29:46;100784.09;;;3.29;100.00
64521;BME280;50896;46.714;17.322;2023-12-29T03:32:13;100780.84;;;3.25;100.00
64521;BME280;50896;46.714;17.322;2023-12-29T03:34:42;100770.44;;;3.24;100.00
64521;BME280;50896;46.714;17.322;2023-12-29T03:37:10;100768.97;;;3.20;100.00
64521;BME280;50896;46.714;17.322;2023-12-29T03:39:37;100760.03;;;3.22;100.00
64521;BME280;50896;46.714;17.322;2023-12-29T03:42:04;100755.84;;;3.20;100.00
64521;BME280;50896;46.714;17.322;2023-12-29T03:44:32;100767.50;;;3.16;100.00
64521;BME280;50896;46.714;17.322;2023-12-29T03:46:59;100768.13;;;3.06;100.00
64521;BME280;50896;46.714;17.322;2023-12-29T03:49:26;100772.66;;;3.04;100.00
64521;BME280;50896;46.714;17.322;2023-12-29T03:51:53;100777.81;;;3.06;100.00
64521;BME280;50896;46.714;17.322;2023-12-29T03:54:20;100780.94;;;3.11;100.00
64521;BME280;50896;46.714;17.322;2023-12-29T03:56:48;100773.91;;;3.12;100.00
64521;BME280;50896;46.714;17.322;2023-12-29T03:59:15;100779.91;;;3.27;100.00
64521;BME280;50896;46.714;17.322;2023-12-29T04:01:42;100774.00;;;3.23;100.00
64521;BME280;50896;46.714;17.322;2023-12-29T04:04:10;100774.53;;;3.15;100.00
64521;BME280;50896;46.714;17.322;2023-12-29T04:06:37;100768.88;;;3.21;100.00
64521;BME280;50896;46.714;17.322;2023-12-29T04:09:03;100776.97;;;3.18;100.00
64521;BME280;50896;46.714;17.322;2023-12-29T04:11:31;100771.28;;;3.24;100.00
64521;BME280;50896;46.714;17.322;2023-12-29T04:13:58;100774.34;;;3.18;100.00
64521;BME280;50896;46.714;17.322;2023-12-29T04:16:24;100771.72;;;3.18;100.00
64521;BME280;50896;46.714;17.322;2023-12-29T04:18:51;100784.19;;;3.28;100.00
64521;BME280;50896;46.714;17.322;2023-12-29T04:21:19;100782.94;;;3.20;100.00
64521;BME280;50896;46.714;17.322;2023-12-29T04:23:45;100780.31;;;3.20;100.00
64521;BME280;50896;46.714;17.322;2023-12-29T04:26:13;100780.53;;;3.17;100.00
64521;BME280;50896;46.714;17.322;2023-12-29T04:28:40;100778.94;;;3.15;100.00
64521;BME280;50896;46.714;17.322;2023-12-29T04:31:08;100778.72;;;3.18;100.00
64521;BME280;50896;46.714;17.322;2023-12-29T04:33:35;100788.19;;;3.20;100.00
64521;BME280;50896;46.714;17.322;2023-12-29T04:36:02;100781.34;;;3.18;100.00
64521;BME280;50896;46.714;17.322;2023-12-29T04:38:29;100780.41;;;3.19;100.00
64521;BME280;50896;46.714;17.322;2023-12-29T04:40:56;100777.16;;;3.15;100.00
64521;BME280;50896;46.714;17.322;2023-12-29T04:43:23;100781.25;;;3.19;100.00
64521;BME280;50896;46.714;17.322;2023-12-29T04:45:50;100777.69;;;3.20;100.00
64521;BME280;50896;46.714;17.322;2023-12-29T04:48:17;100776.09;;;3.18;100.00
64521;BME280;50896;46.714;17.322;2023-12-29T04:50:44;100771.50;;;3.21;100.00
64521;BME280;50896;46.714;17.322;2023-12-29T04:53:11;100769.59;;;3.23;100.00
64521;BME280;50896;46.714;17.322;2023-12-29T04:55:38;100770.03;;;3.17;100.00
64521;BME280;50896;46.714;17.322;2023-12-29T04:58:04;100780.63;;;3.16;100.00
64521;BME280;50896;46.714;17.322;2023-12-29T05:00:31;100773.38;;;3.06;100.00
64521;BME280;50896;46.714;17.322;2023-12-29T05:02:58;100770.03;;;3.04;100.00
64521;BME280;50896;46.714;17.322;2023-12-29T05:05:25;100780.22;;;2.96;100.00
64521;BME280;50896;46.714;17.322;2023-12-29T05:07:52;100784.50;;;2.97;100.00
64521;BME280;50896;46.714;17.322;2023-12-29T05:10:19;100776.13;;;2.92;100.00
64521;BME280;50896;46.714;17.322;2023-12-29T05:12:46;100781.38;;;2.92;100.00
64521;BME280;50896;46.714;17.322;2023-12-29T05:15:13;100776.63;;;2.84;100.00
64521;BME280;50896;46.714;17.322;2023-12-29T05:17:40;100778.94;;;2.89;100.00
64521;BME280;50896;46.714;17.322;2023-12-29T05:20:07;100788.09;;;2.83;100.00
64521;BME280;50896;46.714;17.322;2023-12-29T05:22:34;100780.09;;;2.85;100.00
64521;BME280;50896;46.714;17.322;2023-12-29T05:25:02;100779.66;;;2.78;100.00
64521;BME280;50896;46.714;17.322;2023-12-29T05:27:30;100793.28;;;2.70;100.00
64521;BME280;50896;46.714;17.322;2023-12-29T05:29:57;100790.44;;;2.61;100.00
64521;BME280;50896;46.714;17.322;2023-12-29T05:32:24;100806.09;;;2.62;100.00
64521;BME280;50896;46.714;17.322;2023-12-29T05:34:50;100806.94;;;2.63;100.00
64521;BME280;50896;46.714;17.322;2023-12-29T05:37:18;100809.47;;;2.64;100.00
64521;BME280;50896;46.714;17.322;2023-12-29T05:39:45;100815.44;;;2.66;100.00
64521;BME280;50896;46.714;17.322;2023-12-29T05:42:11;100819.06;;;2.78;100.00
64521;BME280;50896;46.714;17.322;2023-12-29T05:44:39;100811.63;;;2.85;100.00
64521;BME280;50896;46.714;17.322;2023-12-29T05:47:05;100820.09;;;2.76;100.00
64521;BME280;50896;46.714;17.322;2023-12-29T05:49:32;100820.81;;;2.78;100.00
64521;BME280;50896;46.714;17.322;2023-12-29T05:52:07;100817.03;;;2.69;100.00
64521;BME280;50896;46.714;17.322;2023-12-29T05:54:34;100823.63;;;2.62;100.00
64521;BME280;50896;46.714;17.322;2023-12-29T05:57:02;100820.06;;;2.63;100.00
64521;BME280;50896;46.714;17.322;2023-12-29T05:59:29;100819.84;;;2.53;100.00
64521;BME280;50896;46.714;17.322;2023-12-29T06:01:56;100829.19;;;2.57;100.00
64521;BME280;50896;46.714;17.322;2023-12-29T06:04:23;100834.63;;;2.54;100.00
64521;BME280;50896;46.714;17.322;2023-12-29T06:06:50;100822.34;;;2.54;100.00
64521;BME280;50896;46.714;17.322;2023-12-29T06:09:17;100826.75;;;2.54;100.00
64521;BME280;50896;46.714;17.322;2023-12-29T06:11:44;100824.63;;;2.46;100.00
64521;BME280;50896;46.714;17.322;2023-12-29T06:14:11;100824.06;;;2.41;100.00
64521;BME280;50896;46.714;17.322;2023-12-29T06:16:38;100820.19;;;2.34;100.00
64521;BME280;50896;46.714;17.322;2023-12-29T06:19:05;100810.19;;;2.26;100.00
64521;BME280;50896;46.714;17.322;2023-12-29T06:21:32;100811.31;;;2.22;100.00
64521;BME280;50896;46.714;17.322;2023-12-29T06:23:59;100805.72;;;2.14;100.00
64521;BME280;50896;46.714;17.322;2023-12-29T06:26:26;100811.16;;;2.11;100.00
64521;BME280;50896;46.714;17.322;2023-12-29T06:28:53;100809.84;;;2.03;100.00
64521;BME280;50896;46.714;17.322;2023-12-29T06:31:20;100801.47;;;1.98;100.00
64521;BME280;50896;46.714;17.322;2023-12-29T06:33:47;100807.28;;;1.89;100.00
64521;BME280;50896;46.714;17.322;2023-12-29T06:36:14;100812.97;;;1.81;100.00
64521;BME280;50896;46.714;17.322;2023-12-29T06:38:41;100809.94;;;1.75;100.00
64521;BME280;50896;46.714;17.322;2023-12-29T06:41:10;100805.72;;;1.72;100.00
64521;BME280;50896;46.714;17.322;2023-12-29T06:43:38;100808.69;;;1.66;100.00
64521;BME280;50896;46.714;17.322;2023-12-29T06:46:05;100814.13;;;1.63;100.00
64521;BME280;50896;46.714;17.322;2023-12-29T06:48:33;100817.22;;;1.69;100.00
64521;BME280;50896;46.714;17.322;2023-12-29T06:51:00;100816.66;;;1.79;100.00
64521;BME280;50896;46.714;17.322;2023-12-29T06:53:27;100823.56;;;1.80;100.00
64521;BME280;50896;46.714;17.322;2023-12-29T06:55:53;100825.44;;;1.92;100.00
64521;BME280;50896;46.714;17.322;2023-12-29T06:58:20;100824.59;;;1.92;100.00
64521;BME280;50896;46.714;17.322;2023-12-29T07:00:47;100827.69;;;1.98;100.00
64521;BME280;50896;46.714;17.322;2023-12-29T07:03:14;100819.66;;;2.14;100.00
64521;BME280;50896;46.714;17.322;2023-12-29T07:05:42;100813.28;;;2.18;100.00
64521;BME280;50896;46.714;17.322;2023-12-29T07:08:12;100808.50;;;2.25;100.00
64521;BME280;50896;46.714;17.322;2023-12-29T07:10:39;100808.03;;;2.18;100.00
64521;BME280;50896;46.714;17.322;2023-12-29T07:13:06;100816.84;;;2.17;100.00
64521;BME280;50896;46.714;17.322;2023-12-29T07:15:33;100819.38;;;2.19;100.00
64521;BME280;50896;46.714;17.322;2023-12-29T07:17:59;100824.03;;;2.28;100.00
64521;BME280;50896;46.714;17.322;2023-12-29T07:20:27;100813.78;;;2.38;100.00
64521;BME280;50896;46.714;17.322;2023-12-29T07:22:55;100820.97;;;2.49;100.00
64521;BME280;50896;46.714;17.322;2023-12-29T07:25:21;100815.50;;;2.52;100.00
64521;BME280;50896;46.714;17.322;2023-12-29T07:27:48;100833.41;;;2.60;100.00
64521;BME280;50896;46.714;17.322;2023-12-29T07:30:16;100830.91;;;2.71;100.00
64521;BME280;50896;46.714;17.322;2023-12-29T07:32:43;100825.75;;;2.69;100.00
64521;BME280;50896;46.714;17.322;2023-12-29T07:35:10;100847.63;;;2.83;100.00
64521;BME280;50896;46.714;17.322;2023-12-29T07:37:37;100844.72;;;3.00;100.00
64521;BME280;50896;46.714;17.322;2023-12-29T07:40:04;100846.22;;;3.04;100.00
64521;BME280;50896;46.714;17.322;2023-12-29T07:42:31;100856.19;;;3.12;100.00
64521;BME280;50896;46.714;17.322;2023-12-29T07:44:59;100857.78;;;3.15;100.00
64521;BME280;50896;46.714;17.322;2023-12-29T07:47:26;100854.31;;;3.14;100.00
64521;BME280;50896;46.714;17.322;2023-12-29T07:49:53;100843.06;;;3.12;100.00
64521;BME280;50896;46.714;17.322;2023-12-29T07:52:19;100852.94;;;3.21;100.00
64521;BME280;50896;46.714;17.322;2023-12-29T07:54:46;100858.53;;;3.30;100.00
64521;BME280;50896;46.714;17.322;2023-12-29T07:57:13;100868.63;;;3.36;100.00
64521;BME280;50896;46.714;17.322;2023-12-29T07:59:40;100869.88;;;3.43;100.00
64521;BME280;50896;46.714;17.322;2023-12-29T08:02:07;100864.81;;;3.53;100.00
64521;BME280;50896;46.714;17.322;2023-12-29T08:04:35;100859.38;;;3.56;100.00
64521;BME280;50896;46.714;17.322;2023-12-29T08:07:02;100873.78;;;3.63;100.00
64521;BME280;50896;46.714;17.322;2023-12-29T08:09:29;100869.66;;;3.72;100.00
64521;BME280;50896;46.714;17.322;2023-12-29T08:11:56;100875.44;;;3.77;100.00
64521;BME280;50896;46.714;17.322;2023-12-29T08:14:23;100875.13;;;3.82;100.00
64521;BME280;50896;46.714;17.322;2023-12-29T08:16:50;100876.81;;;3.83;100.00
64521;BME280;50896;46.714;17.322;2023-12-29T08:19:17;100876.16;;;3.92;100.00
64521;BME280;50896;46.714;17.322;2023-12-29T08:21:44;100877.22;;;3.89;100.00
64521;BME280;50896;46.714;17.322;2023-12-29T08:24:10;100883.44;;;3.88;100.00
64521;BME280;50896;46.714;17.322;2023-12-29T08:26:45;100882.50;;;3.89;100.00
64521;BME280;50896;46.714;17.322;2023-12-29T08:29:15;100883.09;;;3.93;100.00
64521;BME280;50896;46.714;17.322;2023-12-29T08:31:42;100883.09;;;3.93;100.00
64521;BME280;50896;46.714;17.322;2023-12-29T08:34:11;100887.41;;;3.94;100.00
64521;BME280;50896;46.714;17.322;2023-12-29T08:36:39;100881.59;;;4.02;100.00
64521;BME280;50896;46.714;17.322;2023-12-29T08:39:06;100884.34;;;4.13;100.00
64521;BME280;50896;46.714;17.322;2023-12-29T08:41:32;100887.69;;;4.15;100.00
64521;BME280;50896;46.714;17.322;2023-12-29T08:43:59;100890.41;;;4.26;100.00
64521;BME280;50896;46.714;17.322;2023-12-29T08:46:26;100891.63;;;4.34;100.00
64521;BME280;50896;46.714;17.322;2023-12-29T08:48:53;100896.38;;;4.41;100.00
64521;BME280;50896;46.714;17.322;2023-12-29T08:51:20;100912.44;;;4.50;100.00
64521;BME280;50896;46.714;17.322;2023-12-29T08:53:47;100909.75;;;4.62;100.00
64521;BME280;50896;46.714;17.322;2023-12-29T08:56:14;100906.59;;;4.70;100.00
64521;BME280;50896;46.714;17.322;2023-12-29T08:58:40;100914.53;;;4.82;100.00
64521;BME280;50896;46.714;17.322;2023-12-29T09:01:08;100912.38;;;4.87;100.00
64521;BME280;50896;46.714;17.322;2023-12-29T09:03:35;100914.69;;;4.91;100.00
64521;BME280;50896;46.714;17.322;2023-12-29T09:06:02;100919.28;;;5.01;100.00
64521;BME280;50896;46.714;17.322;2023-12-29T09:08:30;100901.22;;;5.07;100.00
64521;BME280;50896;46.714;17.322;2023-12-29T09:10:57;100900.28;;;5.08;100.00
64521;BME280;50896;46.714;17.322;2023-12-29T09:13:24;100906.63;;;5.17;100.00
64521;BME280;50896;46.714;17.322;2023-12-29T09:15:54;100898.88;;;5.27;100.00
64521;BME280;50896;46.714;17.322;2023-12-29T09:18:21;100899.41;;;5.43;100.00
64521;BME280;50896;46.714;17.322;2023-12-29T09:20:49;100902.28;;;5.52;100.00
64521;BME280;50896;46.714;17.322;2023-12-29T09:23:16;100913.34;;;5.79;100.00
64521;BME280;50896;46.714;17.322;2023-12-29T09:25:43;100916.94;;;5.90;100.00
64521;BME280;50896;46.714;17.322;2023-12-29T09:28:10;100914.69;;;5.96;100.00
64521;BME280;50896;46.714;17.322;2023-12-29T09:30:37;100904.88;;;6.10;100.00
64521;BME280;50896;46.714;17.322;2023-12-29T09:33:04;100908.22;;;6.23;100.00
64521;BME280;50896;46.714;17.322;2023-12-29T09:35:31;100907.13;;;6.26;100.00
64521;BME280;50896;46.714;17.322;2023-12-29T09:38:01;100901.63;;;6.18;100.00
64521;BME280;50896;46.714;17.322;2023-12-29T09:40:28;100901.59;;;6.29;100.00
64521;BME280;50896;46.714;17.322;2023-12-29T09:42:55;100904.09;;;6.42;100.00
64521;BME280;50896;46.714;17.322;2023-12-29T09:45:23;100900.16;;;6.47;100.00
64521;BME280;50896;46.714;17.322;2023-12-29T09:47:54;100885.69;;;6.63;100.00
64521;BME280;50896;46.714;17.322;2023-12-29T09:50:24;100886.81;;;6.81;100.00
64521;BME280;50896;46.714;17.322;2023-12-29T09:52:52;100881.63;;;6.91;100.00
64521;BME280;50896;46.714;17.322;2023-12-29T09:55:20;100872.66;;;7.04;100.00
64521;BME280;50896;46.714;17.322;2023-12-29T09:57:49;100882.53;;;7.23;100.00
64521;BME280;50896;46.714;17.322;2023-12-29T10:00:18;100876.34;;;7.33;100.00
64521;BME280;50896;46.714;17.322;2023-12-29T10:02:45;100866.78;;;7.42;100.00
64521;BME280;50896;46.714;17.322;2023-12-29T10:05:15;100860.84;;;7.50;100.00
64521;BME280;50896;46.714;17.322;2023-12-29T10:07:42;100868.81;;;7.60;100.00
64521;BME280;50896;46.714;17.322;2023-12-29T10:10:14;100862.47;;;7.72;100.00
64521;BME280;50896;46.714;17.322;2023-12-29T10:12:43;100860.53;;;7.74;100.00
64521;BME280;50896;46.714;17.322;2023-12-29T10:15:35;100856.34;;;7.72;100.00
64521;BME280;50896;46.714;17.322;2023-12-29T10:18:14;100856.22;;;7.73;100.00
64521;BME280;50896;46.714;17.322;2023-12-29T10:21:02;100861.38;;;7.75;100.00
64521;BME280;50896;46.714;17.322;2023-12-29T10:24:09;100856.50;;;7.80;100.00
64521;BME280;50896;46.714;17.322;2023-12-29T10:26:40;100846.78;;;7.80;100.00
64521;BME280;50896;46.714;17.322;2023-12-29T10:29:07;100848.59;;;7.90;100.00
64521;BME280;50896;46.714;17.322;2023-12-29T10:31:34;100846.53;;;7.93;100.00
64521;BME280;50896;46.714;17.322;2023-12-29T10:34:24;100844.84;;;7.92;100.00
64521;BME280;50896;46.714;17.322;2023-12-29T10:36:57;100843.91;;;8.03;100.00
64521;BME280;50896;46.714;17.322;2023-12-29T10:39:25;100841.16;;;8.14;100.00
64521;BME280;50896;46.714;17.322;2023-12-29T10:42:03;100831.03;;;8.39;100.00
64521;BME280;50896;46.714;17.322;2023-12-29T10:44:33;100824.81;;;8.79;100.00
64521;BME280;50896;46.714;17.322;2023-12-29T10:47:11;100814.34;;;9.35;100.00
64521;BME280;50896;46.714;17.322;2023-12-29T10:49:41;100798.16;;;10.21;100.00
64521;BME280;50896;46.714;17.322;2023-12-29T10:52:12;100797.81;;;11.23;100.00
64521;BME280;50896;46.714;17.322;2023-12-29T10:54:42;100780.53;;;11.96;100.00
64521;BME280;50896;46.714;17.322;2023-12-29T10:57:12;100780.44;;;12.47;100.00
64521;BME280;50896;46.714;17.322;2023-12-29T10:59:40;100771.94;;;12.76;100.00
64521;BME280;50896;46.714;17.322;2023-12-29T11:02:07;100758.44;;;12.86;100.00
64521;BME280;50896;46.714;17.322;2023-12-29T11:04:35;100763.41;;;12.97;100.00
64521;BME280;50896;46.714;17.322;2023-12-29T11:07:02;100761.06;;;13.03;100.00
64521;BME280;50896;46.714;17.322;2023-12-29T11:09:31;100758.75;;;12.99;100.00
64521;BME280;50896;46.714;17.322;2023-12-29T11:12:01;100749.94;;;12.91;100.00
64521;BME280;50896;46.714;17.322;2023-12-29T11:14:28;100743.00;;;13.21;100.00
64521;BME280;50896;46.714;17.322;2023-12-29T11:16:56;100742.09;;;14.16;100.00
64521;BME280;50896;46.714;17.322;2023-12-29T11:19:23;100740.25;;;15.53;97.79
64521;BME280;50896;46.714;17.322;2023-12-29T11:21:54;100717.34;;;17.37;72.38
64521;BME280;50896;46.714;17.322;2023-12-29T11:24:21;100716.09;;;19.80;52.32
64521;BME280;50896;46.714;17.322;2023-12-29T11:27:01;100712.03;;;21.72;43.75
64521;BME280;50896;46.714;17.322;2023-12-29T11:29:30;100707.81;;;22.18;40.57
64521;BME280;50896;46.714;17.322;2023-12-29T11:31:59;100713.44;;;23.18;38.22
64521;BME280;50896;46.714;17.322;2023-12-29T11:34:38;100715.16;;;24.39;36.08
64521;BME280;50896;46.714;17.322;2023-12-29T11:37:21;100708.75;;;25.24;33.84
64521;BME280;50896;46.714;17.322;2023-12-29T11:40:11;100690.25;;;25.43;33.29
64521;BME280;50896;46.714;17.322;2023-12-29T11:42:41;100690.63;;;25.79;32.98
64521;BME280;50896;46.714;17.322;2023-12-29T11:45:43;100695.41;;;25.22;33.29
64521;BME280;50896;46.714;17.322;2023-12-29T11:48:12;100679.91;;;25.45;33.25
64521;BME280;50896;46.714;17.322;2023-12-29T11:50:40;100690.84;;;25.06;33.65
64521;BME280;50896;46.714;17.322;2023-12-29T11:53:08;100692.38;;;24.97;33.66
64521;BME280;50896;46.714;17.322;2023-12-29T11:55:39;100702.84;;;24.88;33.95
64521;BME280;50896;46.714;17.322;2023-12-29T11:58:26;100700.56;;;23.95;34.84
64521;BME280;50896;46.714;17.322;2023-12-29T12:00:56;100703.41;;;22.95;36.92
64521;BME280;50896;46.714;17.322;2023-12-29T12:03:28;100699.59;;;21.33;38.10
64521;BME280;50896;46.714;17.322;2023-12-29T12:05:55;100688.72;;;19.70;40.97
64521;BME280;50896;46.714;17.322;2023-12-29T12:08:35;100688.19;;;18.02;45.53
64521;BME280;50896;46.714;17.322;2023-12-29T12:13:56;100690.81;;;14.51;62.35
64521;BME280;50896;46.714;17.322;2023-12-29T12:19:09;100694.13;;;13.21;76.26
64521;BME280;50896;46.714;17.322;2023-12-29T12:21:37;100693.75;;;12.76;81.00
64521;BME280;50896;46.714;17.322;2023-12-29T12:24:05;100691.63;;;12.30;84.24
64521;BME280;50896;46.714;17.322;2023-12-29T12:26:32;100708.22;;;11.91;89.99
64521;BME280;50896;46.714;17.322;2023-12-29T12:28:59;100693.31;;;11.63;97.33
64521;BME280;50896;46.714;17.322;2023-12-29T12:31:26;100697.09;;;11.95;94.57
64521;BME280;50896;46.714;17.322;2023-12-29T12:33:54;100682.56;;;11.82;94.18
64521;BME280;50896;46.714;17.322;2023-12-29T12:36:23;100685.00;;;11.58;97.63
64521;BME280;50896;46.714;17.322;2023-12-29T12:38:53;100683.78;;;11.36;100.00
64521;BME280;50896;46.714;17.322;2023-12-29T12:41:21;100681.81;;;11.12;100.00
64521;BME280;50896;46.714;17.322;2023-12-29T12:46:35;100664.41;;;10.83;100.00
64521;BME280;50896;46.714;17.322;2023-12-29T12:49:04;100664.38;;;10.75;100.00
64521;BME280;50896;46.714;17.322;2023-12-29T12:51:32;100652.69;;;10.68;100.00
64521;BME280;50896;46.714;17.322;2023-12-29T12:54:00;100650.47;;;10.55;100.00
64521;BME280;50896;46.714;17.322;2023-12-29T12:56:27;100647.78;;;10.55;100.00
64521;BME280;50896;46.714;17.322;2023-12-29T12:58:56;100647.59;;;10.48;100.00